createdAt,value
2023-04-09T00:01:14.397Z,14.13
2023-04-09T00:03:41.400Z,13.80
2023-04-09T00:06:08.355Z,14.30
2023-04-09T00:08:35.464Z,14.27
2023-04-09T00:11:02.362Z,14.13
2023-04-09T00:13:38.561Z,13.40
2023-04-09T00:16:06.899Z,13.40
2023-04-09T00:18:33.859Z,13.87
2023-04-09T00:21:00.791Z,13.17
2023-04-09T00:23:27.753Z,12.83
2023-04-09T00:25:54.713Z,13.03
2023-04-09T00:28:21.633Z,14.00
2023-04-09T00:30:48.564Z,13.50
2023-04-09T00:33:15.816Z,12.97
2023-04-09T00:35:42.857Z,12.63
2023-04-09T00:38:09.845Z,13.30
2023-04-09T00:40:36.753Z,12.00
2023-04-09T00:43:04.040Z,11.57
2023-04-09T00:45:31.012Z,12.17
2023-04-09T00:47:57.994Z,11.70
2023-04-09T00:50:25.450Z,14.10
2023-04-09T00:52:52.495Z,13.03
2023-04-09T00:55:21.395Z,11.90
2023-04-09T00:57:48.328Z,13.10
2023-04-09T01:00:15.722Z,11.77
2023-04-09T01:02:44.057Z,12.20
2023-04-09T01:05:13.079Z,12.23
2023-04-09T01:08:08.999Z,13.33
2023-04-09T01:10:47.743Z,12.20
2023-04-09T01:13:40.231Z,12.13
2023-04-09T01:16:10.635Z,12.03
2023-04-09T01:18:44.603Z,13.03
2023-04-09T01:21:20.205Z,12.30
2023-04-09T01:24:31.662Z,13.43
2023-04-09T01:27:09.086Z,12.13
2023-04-09T01:29:53.017Z,13.20
2023-04-09T01:32:21.398Z,13.40
2023-04-09T01:34:49.314Z,13.10
2023-04-09T01:37:16.983Z,13.50
2023-04-09T01:39:44.745Z,12.60
2023-04-09T01:42:12.949Z,13.10
2023-04-09T01:44:40.684Z,13.00
2023-04-09T01:47:08.848Z,14.20
2023-04-09T01:49:37.727Z,13.87
2023-04-09T01:52:05.362Z,13.03
2023-04-09T01:54:32.977Z,15.03
2023-04-09T01:56:59.964Z,12.73
2023-04-09T01:59:26.869Z,13.73
2023-04-09T02:02:00.415Z,12.60
2023-04-09T02:04:37.423Z,13.17
2023-04-09T02:07:14.132Z,12.53
2023-04-09T02:09:42.158Z,14.33
2023-04-09T02:12:14.947Z,12.87
2023-04-09T02:14:42.692Z,12.13
2023-04-09T02:17:09.691Z,13.03
2023-04-09T02:19:45.255Z,13.27
2023-04-09T02:22:14.511Z,14.33
2023-04-09T02:24:41.603Z,12.93
2023-04-09T02:27:08.647Z,13.50
2023-04-09T02:29:35.622Z,13.00
2023-04-09T02:32:02.612Z,13.33
2023-04-09T02:34:29.519Z,13.47
2023-04-09T02:36:56.407Z,14.40
2023-04-09T02:39:23.322Z,11.97
2023-04-09T02:41:50.457Z,14.43
2023-04-09T02:44:17.348Z,12.83
2023-04-09T02:46:46.809Z,12.70
2023-04-09T02:49:13.699Z,12.97
2023-04-09T02:51:40.650Z,13.90
2023-04-09T02:54:07.557Z,13.43
2023-04-09T02:56:34.485Z,13.63
2023-04-09T02:59:01.360Z,13.10
2023-04-09T03:01:28.354Z,15.17
2023-04-09T03:03:55.515Z,14.13
2023-04-09T03:06:22.490Z,13.10
2023-04-09T03:08:49.507Z,14.63
2023-04-09T03:11:16.538Z,13.60
2023-04-09T03:13:43.439Z,15.00
2023-04-09T03:16:10.597Z,13.80
2023-04-09T03:18:37.778Z,13.67
2023-04-09T03:21:08.936Z,12.10
2023-04-09T03:23:38.865Z,14.50
2023-04-09T03:26:07.709Z,13.50
2023-04-09T03:28:42.255Z,11.60
2023-04-09T03:31:09.231Z,12.83
2023-04-09T03:33:38.307Z,14.50
2023-04-09T03:36:05.485Z,13.30
2023-04-09T03:38:46.618Z,13.20
2023-04-09T03:41:26.455Z,12.43
2023-04-09T03:43:54.556Z,12.87
2023-04-09T03:46:26.309Z,12.00
2023-04-09T03:48:53.706Z,12.63
2023-04-09T03:51:24.690Z,13.90
2023-04-09T03:53:56.460Z,12.50
2023-04-09T03:56:23.411Z,12.50
2023-04-09T03:58:51.032Z,12.97
2023-04-09T04:01:21.727Z,13.63
2023-04-09T04:03:55.896Z,12.20
2023-04-09T04:06:24.986Z,12.43
2023-04-09T04:09:07.209Z,13.00
2023-04-09T04:11:42.148Z,11.20
2023-04-09T04:14:09.285Z,11.23
2023-04-09T04:16:36.865Z,13.33
2023-04-09T04:19:05.970Z,12.70
2023-04-09T04:21:39.280Z,14.43
2023-04-09T04:24:06.991Z,11.13
2023-04-09T04:26:33.912Z,12.87
2023-04-09T04:29:00.897Z,13.80
2023-04-09T04:31:42.381Z,13.83
2023-04-09T04:34:09.337Z,13.70
2023-04-09T04:36:37.728Z,14.33
2023-04-09T04:39:05.437Z,14.50
2023-04-09T04:41:43.973Z,14.47
2023-04-09T04:44:16.128Z,15.67
2023-04-09T04:46:43.150Z,13.90
2023-04-09T04:49:11.264Z,13.67
2023-04-09T04:51:45.730Z,13.53
2023-04-09T04:54:14.787Z,14.70
2023-04-09T04:56:48.612Z,14.17
2023-04-09T04:59:42.589Z,14.93
2023-04-09T05:02:12.092Z,14.60
2023-04-09T05:05:11.635Z,14.27
2023-04-09T05:07:44.835Z,13.73
2023-04-09T05:10:11.841Z,13.87
2023-04-09T05:12:42.024Z,13.17
2023-04-09T05:15:10.714Z,14.10
2023-04-09T05:17:38.422Z,14.23
2023-04-09T05:20:08.466Z,15.23
2023-04-09T05:22:46.291Z,12.70
2023-04-09T05:25:16.332Z,14.40
2023-04-09T05:27:43.582Z,14.80
2023-04-09T05:30:10.813Z,13.90
2023-04-09T05:32:38.636Z,14.10
2023-04-09T05:35:06.225Z,14.70
2023-04-09T05:37:38.617Z,16.80
2023-04-09T05:40:06.908Z,15.07
2023-04-09T05:42:33.955Z,14.17
2023-04-09T05:45:05.448Z,13.43
2023-04-09T05:47:32.739Z,16.83
2023-04-09T05:50:08.397Z,16.03
2023-04-09T05:52:35.822Z,16.00
2023-04-09T05:55:03.844Z,16.17
2023-04-09T05:57:42.181Z,17.20
2023-04-09T06:00:09.699Z,16.20
2023-04-09T06:02:47.444Z,17.60
2023-04-09T06:05:14.443Z,16.53
2023-04-09T06:07:41.337Z,15.90
2023-04-09T06:10:08.832Z,15.70
2023-04-09T06:12:36.260Z,15.57
2023-04-09T06:15:07.365Z,16.33
2023-04-09T06:17:34.301Z,15.23
2023-04-09T06:20:01.217Z,16.07
2023-04-09T06:22:28.095Z,15.43
2023-04-09T06:24:55.092Z,14.40
2023-04-09T06:27:22.812Z,15.27
2023-04-09T06:29:49.698Z,13.53
2023-04-09T06:32:16.976Z,15.57
2023-04-09T06:34:43.892Z,14.00
2023-04-09T06:37:10.872Z,14.77
2023-04-09T06:39:40.394Z,12.80
2023-04-09T06:42:09.436Z,12.50
2023-04-09T06:44:49.177Z,12.20
2023-04-09T06:47:16.107Z,12.50
2023-04-09T06:49:43.012Z,13.63
2023-04-09T06:52:09.973Z,13.00
2023-04-09T06:54:36.882Z,13.87
2023-04-09T06:57:03.827Z,12.70
2023-04-09T06:59:30.925Z,14.63
2023-04-09T07:01:57.925Z,13.90
2023-04-09T07:04:24.996Z,12.07
2023-04-09T07:06:54.700Z,12.50
2023-04-09T07:09:21.613Z,13.30
2023-04-09T07:11:48.520Z,13.20
2023-04-09T07:14:15.398Z,12.03
2023-04-09T07:16:42.977Z,13.50
2023-04-09T07:19:10.238Z,14.90
2023-04-09T07:21:37.153Z,14.10
2023-04-09T07:24:04.090Z,12.00
2023-04-09T07:26:31.330Z,13.73
2023-04-09T07:28:58.510Z,12.90
2023-04-09T07:31:25.756Z,13.70
2023-04-09T07:33:53.023Z,13.97
2023-04-09T07:36:20.337Z,15.23
2023-04-09T07:38:47.495Z,14.80
2023-04-09T07:41:14.661Z,14.13
2023-04-09T07:43:41.863Z,14.90
2023-04-09T07:46:08.970Z,14.50
2023-04-09T07:48:35.952Z,16.17
2023-04-09T07:51:03.137Z,15.00
2023-04-09T07:53:30.026Z,15.53
2023-04-09T07:55:57.104Z,15.60
2023-04-09T07:58:24.001Z,16.97
2023-04-09T08:00:50.924Z,16.67
2023-04-09T08:03:19.005Z,15.43
2023-04-09T08:05:46.379Z,16.80
2023-04-09T08:08:13.277Z,15.90
2023-04-09T08:10:40.397Z,18.40
2023-04-09T08:13:07.594Z,20.00
2023-04-09T08:15:35.246Z,18.00
2023-04-09T08:18:04.114Z,18.57
2023-04-09T08:20:32.977Z,16.77
2023-04-09T08:22:59.851Z,18.17
2023-04-09T08:25:26.769Z,21.23
2023-04-09T08:27:53.661Z,19.23
2023-04-09T08:30:21.152Z,17.80
2023-04-09T08:32:48.513Z,18.07
2023-04-09T08:35:15.924Z,18.83
2023-04-09T08:37:43.623Z,19.37
2023-04-09T08:40:11.666Z,19.40
2023-04-09T08:42:46.083Z,20.40
2023-04-09T08:45:13.357Z,21.50
2023-04-09T08:47:42.493Z,20.30
2023-04-09T08:50:09.899Z,19.63
2023-04-09T08:52:37.409Z,19.93
2023-04-09T08:55:04.677Z,19.70
2023-04-09T08:57:38.385Z,19.90
2023-04-09T09:00:06.938Z,18.73
2023-04-09T09:02:34.186Z,19.23
2023-04-09T09:05:01.649Z,21.10
2023-04-09T09:07:32.200Z,19.40
2023-04-09T09:10:03.719Z,19.07
2023-04-09T09:12:43.077Z,19.83
2023-04-09T09:15:28.099Z,19.77
2023-04-09T09:17:58.117Z,19.53
2023-04-09T09:20:27.081Z,20.50
2023-04-09T09:22:56.806Z,21.23
2023-04-09T09:25:25.794Z,20.20
2023-04-09T09:27:53.917Z,20.87
2023-04-09T09:30:26.917Z,19.57
2023-04-09T09:33:12.210Z,22.17
2023-04-09T09:35:50.648Z,22.13
2023-04-09T09:38:18.328Z,20.87
2023-04-09T09:40:45.646Z,21.93
2023-04-09T09:43:14.679Z,21.70
2023-04-09T09:45:43.831Z,22.97
2023-04-09T09:48:12.839Z,21.00
2023-04-09T09:50:41.889Z,21.67
2023-04-09T09:53:11.357Z,21.30
2023-04-09T09:55:48.266Z,21.90
2023-04-09T09:58:25.288Z,23.33
2023-04-09T10:00:53.296Z,21.67
2023-04-09T10:03:30.252Z,19.97
2023-04-09T10:05:58.659Z,22.83
2023-04-09T10:08:26.049Z,23.87
2023-04-09T10:10:53.396Z,22.50
2023-04-09T10:13:29.663Z,22.63
2023-04-09T10:15:57.525Z,21.50
2023-04-09T10:18:24.801Z,23.50
2023-04-09T10:20:57.179Z,22.00
2023-04-09T10:23:36.443Z,22.10
2023-04-09T10:26:04.300Z,20.00
2023-04-09T10:28:31.244Z,20.87
2023-04-09T10:30:59.483Z,20.13
2023-04-09T10:33:28.776Z,20.33
2023-04-09T10:36:02.137Z,19.83
2023-04-09T10:38:38.209Z,17.67
2023-04-09T10:41:28.678Z,18.20
2023-04-09T10:43:57.457Z,17.13
2023-04-09T10:46:37.185Z,18.27
2023-04-09T10:49:18.065Z,18.77
2023-04-09T10:52:05.232Z,18.33
2023-04-09T10:54:35.129Z,18.00
2023-04-09T10:57:07.764Z,18.87
2023-04-09T10:59:41.116Z,19.20
2023-04-09T11:02:14.759Z,18.40
2023-04-09T11:05:07.299Z,17.90
2023-04-09T11:07:41.449Z,18.93
2023-04-09T11:10:09.071Z,17.47
2023-04-09T11:12:36.028Z,18.93
2023-04-09T11:15:03.217Z,18.60
2023-04-09T11:17:31.233Z,18.83
2023-04-09T11:19:58.169Z,17.83
2023-04-09T11:22:25.195Z,16.67
2023-04-09T11:24:54.232Z,17.93
2023-04-09T11:27:21.696Z,19.00
2023-04-09T11:29:48.610Z,17.53
2023-04-09T11:32:15.498Z,18.43
2023-04-09T11:34:42.399Z,18.03
2023-04-09T11:37:16.872Z,19.80
2023-04-09T11:39:46.911Z,18.60
2023-04-09T11:42:16.927Z,18.97
2023-04-09T11:44:46.989Z,18.33
2023-04-09T11:47:14.666Z,18.43
2023-04-09T11:49:41.576Z,20.00
2023-04-09T11:52:08.548Z,19.30
2023-04-09T11:54:35.445Z,16.90
2023-04-09T11:57:05.642Z,17.17
2023-04-09T11:59:32.566Z,19.53
2023-04-09T12:01:59.779Z,19.90
2023-04-09T12:04:26.778Z,19.50
2023-04-09T12:06:58.770Z,17.90
2023-04-09T12:09:26.189Z,19.40
2023-04-09T12:11:53.169Z,18.80
2023-04-09T12:14:22.143Z,17.27
2023-04-09T12:16:52.754Z,19.83
2023-04-09T12:19:21.113Z,19.90
2023-04-09T12:21:54.612Z,19.50
2023-04-09T12:24:25.976Z,21.37
2023-04-09T12:26:53.230Z,19.57
2023-04-09T12:29:21.513Z,18.60
2023-04-09T12:31:48.502Z,20.23
2023-04-09T12:34:15.473Z,20.03
2023-04-09T12:36:42.420Z,17.37
2023-04-09T12:39:09.755Z,17.17
2023-04-09T12:41:36.992Z,17.50
2023-04-09T12:44:04.987Z,18.40
2023-04-09T12:46:32.493Z,18.33
2023-04-09T12:48:59.688Z,18.77
2023-04-09T12:51:26.588Z,17.97
2023-04-09T12:53:53.718Z,15.80
2023-04-09T12:56:20.740Z,16.33
2023-04-09T12:58:47.630Z,16.80
2023-04-09T13:01:14.576Z,17.30
2023-04-09T13:03:42.076Z,15.87
2023-04-09T13:06:09.235Z,15.17
2023-04-09T13:08:36.376Z,14.83
2023-04-09T13:11:04.319Z,13.90
2023-04-09T13:13:31.544Z,12.80
2023-04-09T13:15:58.457Z,13.70
2023-04-09T13:18:25.345Z,12.30
2023-04-09T13:20:52.220Z,12.30
2023-04-09T13:23:19.149Z,12.30
2023-04-09T13:25:46.030Z,12.73
2023-04-09T13:28:12.917Z,11.57
2023-04-09T13:30:39.856Z,11.93
2023-04-09T13:33:06.841Z,11.90
2023-04-09T13:35:33.797Z,10.70
2023-04-09T13:38:00.993Z,10.90
2023-04-09T13:40:27.892Z,11.60
2023-04-09T13:42:54.784Z,9.77
2023-04-09T13:45:23.770Z,11.10
2023-04-09T13:47:51.010Z,12.10
2023-04-09T13:50:18.057Z,10.83
2023-04-09T13:52:44.963Z,11.17
2023-04-09T13:55:12.045Z,10.97
2023-04-09T13:57:38.979Z,9.60
2023-04-09T14:00:08.195Z,10.10
2023-04-09T14:02:35.234Z,10.00
2023-04-09T14:05:03.921Z,10.27
2023-04-09T14:07:30.951Z,8.80
2023-04-09T14:09:58.029Z,10.20
2023-04-09T14:12:24.914Z,10.13
2023-04-09T14:14:52.206Z,9.20
2023-04-09T14:17:19.105Z,8.53
2023-04-09T14:19:45.991Z,8.67
2023-04-09T14:22:12.951Z,8.50
2023-04-09T14:24:40.592Z,8.23
2023-04-09T14:27:08.207Z,9.63
2023-04-09T14:29:35.550Z,8.43
2023-04-09T14:32:02.561Z,10.63
2023-04-09T14:34:32.493Z,9.43
2023-04-09T14:36:59.429Z,9.23
2023-04-09T14:39:26.319Z,8.00
2023-04-09T14:41:54.436Z,8.57
2023-04-09T14:44:21.473Z,8.50
2023-04-09T14:46:48.413Z,7.47
2023-04-09T14:49:15.388Z,7.23
2023-04-09T14:51:42.278Z,7.40
2023-04-09T14:54:09.210Z,7.50
2023-04-09T14:56:36.098Z,7.63
2023-04-09T14:59:03.065Z,7.93
2023-04-09T15:01:31.211Z,7.57
2023-04-09T15:03:59.974Z,7.67
2023-04-09T15:06:27.943Z,7.73
2023-04-09T15:08:55.040Z,8.00
2023-04-09T15:11:24.813Z,7.67
2023-04-09T15:13:52.208Z,7.27
2023-04-09T15:16:24.575Z,6.70
2023-04-09T15:18:52.508Z,7.30
2023-04-09T15:21:19.761Z,6.80
2023-04-09T15:23:46.690Z,7.77
2023-04-09T15:26:13.590Z,7.97
2023-04-09T15:28:40.633Z,7.30
2023-04-09T15:31:07.799Z,7.40
2023-04-09T15:33:34.777Z,7.00
2023-04-09T15:36:01.693Z,6.47
2023-04-09T15:38:28.610Z,6.57
2023-04-09T15:40:58.252Z,7.23
2023-04-09T15:43:25.274Z,5.40
2023-04-09T15:45:52.214Z,5.40
2023-04-09T15:48:19.510Z,5.17
2023-04-09T15:50:46.800Z,4.23
2023-04-09T15:53:15.041Z,5.20
2023-04-09T15:55:42.341Z,6.23
2023-04-09T15:58:09.336Z,5.50
2023-04-09T16:00:36.335Z,5.03
2023-04-09T16:03:03.385Z,5.57
2023-04-09T16:05:30.326Z,5.23
2023-04-09T16:07:59.746Z,4.83
2023-04-09T16:10:26.873Z,4.00
2023-04-09T16:12:53.814Z,4.47
2023-04-09T16:15:20.691Z,4.30
2023-04-09T16:17:47.605Z,3.93
2023-04-09T16:20:14.604Z,4.27
2023-04-09T16:22:41.521Z,4.80
2023-04-09T16:25:08.999Z,5.27
2023-04-09T16:27:35.909Z,5.03
2023-04-09T16:30:03.014Z,6.03
2023-04-09T16:32:29.951Z,4.47
2023-04-09T16:35:00.511Z,5.30
2023-04-09T16:37:27.991Z,5.20
2023-04-09T16:39:54.931Z,5.00
2023-04-09T16:42:22.592Z,4.87
2023-04-09T16:44:50.248Z,5.10
2023-04-09T16:47:17.171Z,4.60
2023-04-09T16:49:44.051Z,5.07
2023-04-09T16:52:11.013Z,4.43
2023-04-09T16:54:37.885Z,4.60
2023-04-09T16:57:05.012Z,5.07
2023-04-09T16:59:32.432Z,4.87
2023-04-09T17:01:59.448Z,4.53
2023-04-09T17:04:27.194Z,4.17
2023-04-09T17:06:54.221Z,4.83
2023-04-09T17:09:21.110Z,4.93
2023-04-09T17:11:48.000Z,4.80
2023-04-09T17:14:14.976Z,5.00
2023-04-09T17:16:41.920Z,4.73
2023-04-09T17:19:08.929Z,5.23
2023-04-09T17:21:36.394Z,4.20
2023-04-09T17:24:03.287Z,4.80
2023-04-09T17:26:30.189Z,4.63
2023-04-09T17:28:57.104Z,4.80
2023-04-09T17:31:24.523Z,4.27
2023-04-09T17:33:52.275Z,5.40
2023-04-09T17:36:20.312Z,4.47
2023-04-09T17:38:48.552Z,4.60
2023-04-09T17:41:15.736Z,4.53
2023-04-09T17:43:42.628Z,4.27
2023-04-09T17:46:09.647Z,4.60
2023-04-09T17:48:37.360Z,5.63
2023-04-09T17:51:05.564Z,4.47
2023-04-09T17:53:32.527Z,5.13
2023-04-09T17:55:59.413Z,5.30
2023-04-09T17:58:26.999Z,5.10
2023-04-09T18:00:53.929Z,5.50
2023-04-09T18:03:21.114Z,5.80
2023-04-09T18:05:48.342Z,5.20
2023-04-09T18:08:15.720Z,4.43
2023-04-09T18:10:42.728Z,5.00
2023-04-09T18:13:09.713Z,4.73
2023-04-09T18:15:37.802Z,5.43
2023-04-09T18:18:04.733Z,5.80
2023-04-09T18:20:31.635Z,5.40
2023-04-09T18:22:58.517Z,5.83
2023-04-09T18:25:25.455Z,5.40
2023-04-09T18:27:52.391Z,6.23
2023-04-09T18:30:19.264Z,6.13
2023-04-09T18:32:48.195Z,5.77
2023-04-09T18:35:15.568Z,6.27
2023-04-09T18:37:42.465Z,6.67
2023-04-09T18:40:17.413Z,5.07
2023-04-09T18:42:44.496Z,5.80
2023-04-09T18:45:11.924Z,6.20
2023-04-09T18:47:38.880Z,5.90
2023-04-09T18:50:06.476Z,5.90
2023-04-09T18:52:38.113Z,7.13
2023-04-09T18:55:05.751Z,6.00
2023-04-09T18:57:35.632Z,6.20
2023-04-09T19:00:03.865Z,5.80
2023-04-09T19:02:30.944Z,6.23
2023-04-09T19:04:58.645Z,6.70
2023-04-09T19:07:25.876Z,7.70
2023-04-09T19:09:52.766Z,8.07
2023-04-09T19:12:19.723Z,7.10
2023-04-09T19:14:46.927Z,7.93
2023-04-09T19:17:13.919Z,8.20
2023-04-09T19:19:40.873Z,7.63
2023-04-09T19:22:07.757Z,8.97
2023-04-09T19:24:34.667Z,8.30
2023-04-09T19:27:07.980Z,9.30
2023-04-09T19:29:35.227Z,8.80
2023-04-09T19:32:03.429Z,8.67
2023-04-09T19:34:30.386Z,8.23
2023-04-09T19:36:57.827Z,9.97
2023-04-09T19:39:24.724Z,8.13
2023-04-09T19:41:51.625Z,8.40
2023-04-09T19:44:18.918Z,9.03
2023-04-09T19:46:45.905Z,9.80
2023-04-09T19:49:12.872Z,9.70
2023-04-09T19:51:39.789Z,9.27
2023-04-09T19:54:06.807Z,9.03
2023-04-09T19:56:34.010Z,8.67
2023-04-09T19:59:01.021Z,7.33
2023-04-09T20:01:29.121Z,7.40
2023-04-09T20:03:56.159Z,7.13
2023-04-09T20:06:23.144Z,7.73
2023-04-09T20:08:50.154Z,6.83
2023-04-09T20:11:18.085Z,6.37
2023-04-09T20:13:47.064Z,6.50
2023-04-09T20:16:17.065Z,6.80
2023-04-09T20:18:43.979Z,7.30
2023-04-09T20:21:14.206Z,7.80
2023-04-09T20:23:41.357Z,6.10
2023-04-09T20:26:10.899Z,8.00
2023-04-09T20:28:37.852Z,7.57
2023-04-09T20:31:05.133Z,8.57
2023-04-09T20:33:32.561Z,9.03
2023-04-09T20:35:59.908Z,9.70
2023-04-09T20:38:27.042Z,8.00
2023-04-09T20:40:54.002Z,9.43
2023-04-09T20:43:21.391Z,9.10
2023-04-09T20:45:48.356Z,7.10
2023-04-09T20:48:15.453Z,9.60
2023-04-09T20:50:42.691Z,9.30
2023-04-09T20:53:09.593Z,9.23
2023-04-09T20:55:37.042Z,9.70
2023-04-09T20:58:04.277Z,9.30
2023-04-09T21:00:31.185Z,23.40
2023-04-09T21:02:58.384Z,34.83
2023-04-09T21:05:25.503Z,39.20
2023-04-09T21:07:53.216Z,28.73
2023-04-09T21:10:20.238Z,22.33
2023-04-09T21:12:47.172Z,19.00
2023-04-09T21:15:14.110Z,17.93
2023-04-09T21:17:41.016Z,15.20
2023-04-09T21:20:08.776Z,13.63
2023-04-09T21:22:36.045Z,13.20
2023-04-09T21:25:03.406Z,11.17
2023-04-09T21:27:30.433Z,9.10
2023-04-09T21:29:57.555Z,9.37
2023-04-09T21:32:25.137Z,8.97
2023-04-09T21:34:52.259Z,7.77
2023-04-09T21:37:19.166Z,8.27
2023-04-09T21:39:48.108Z,8.43
2023-04-09T21:42:15.016Z,9.10
2023-04-09T21:44:41.898Z,8.03
2023-04-09T21:47:09.304Z,9.00
2023-04-09T21:49:40.133Z,8.73
2023-04-09T21:52:13.860Z,9.90
2023-04-09T21:54:42.114Z,9.03
2023-04-09T21:57:09.088Z,9.17
2023-04-09T21:59:38.539Z,8.77
2023-04-09T22:02:05.764Z,8.63
2023-04-09T22:04:34.922Z,8.00
2023-04-09T22:07:02.676Z,8.93
2023-04-09T22:09:30.563Z,8.00
2023-04-09T22:11:58.495Z,6.93
2023-04-09T22:14:29.655Z,6.83
2023-04-09T22:16:58.377Z,8.83
2023-04-09T22:19:26.096Z,7.77
2023-04-09T22:21:53.469Z,7.87
2023-04-09T22:24:26.539Z,6.80
2023-04-09T22:26:53.849Z,6.43
2023-04-09T22:29:20.779Z,6.60
2023-04-09T22:31:47.653Z,7.50
2023-04-09T22:34:21.271Z,7.90
2023-04-09T22:36:49.080Z,7.30
2023-04-09T22:39:16.026Z,7.70
2023-04-09T22:41:43.121Z,8.43
2023-04-09T22:44:10.043Z,8.47
2023-04-09T22:46:37.182Z,8.10
2023-04-09T22:49:05.371Z,8.37
2023-04-09T22:51:35.043Z,7.83
2023-04-09T22:54:02.343Z,8.40
2023-04-09T22:56:31.534Z,8.77
2023-04-09T22:58:58.481Z,7.77
2023-04-09T23:01:26.268Z,8.17
2023-04-09T23:03:53.246Z,7.53
2023-04-09T23:06:20.693Z,9.03
2023-04-09T23:08:47.589Z,9.90
2023-04-09T23:11:14.537Z,8.07
2023-04-09T23:13:41.418Z,8.23
2023-04-09T23:16:09.406Z,7.43
2023-04-09T23:18:36.756Z,9.33
2023-04-09T23:21:08.421Z,8.70
2023-04-09T23:23:36.419Z,8.03
2023-04-09T23:26:04.288Z,10.43
2023-04-09T23:28:31.633Z,8.20
2023-04-09T23:30:58.522Z,8.63
2023-04-09T23:33:25.435Z,9.10
2023-04-09T23:35:52.340Z,9.60
2023-04-09T23:38:19.299Z,10.87
2023-04-09T23:40:47.369Z,12.90
2023-04-09T23:43:14.478Z,12.90
2023-04-09T23:45:41.376Z,11.53
2023-04-09T23:48:08.925Z,10.33
2023-04-09T23:50:39.634Z,8.30
2023-04-09T23:53:06.624Z,9.77
2023-04-09T23:55:37.938Z,9.53
2023-04-09T23:58:05.393Z,9.03
